Language: 


Des rapports , des résumés tant et plus, au choix de chacun....


Données statistiques de la station
Quotidien Rapport Juillet 7, 2017 Unités:  Anglais    Métrique   les deux
« Précédent Jour
Suivant Jour »
Quotidien Hebdomadaire Mensuel Annuel Actuel
  Haut: Bas: Moyen:
Température: 88.9 °F 62.4 °F 80.4 °F
Pt de rosée: 69.8 °F 48.2 °F 57.7 °F
Humidité: 78 % 30 % 47 %
Vitesse du vent: 13.9 mph 0 mph 5.5 mph
Rafales: 15.4 mph - -
Vent:- - West
Pression: 30 in 29.9 in -
Précipitation: 0 in    
Historical Graphs
 
 
Données statistiques pour Juillet 7, 2017
Heure Température Point de rosée Pression Vent Vitesse du vent Refales Humidité Pluie (taux horaire)
09:39 74.5 °F 68 °F 30 in WSW 7.8 mph 9.6 mph 78 % 0 in
09:44 74.5 °F 68 °F 30 in West 5.8 mph 10.1 mph 77 % 0 in
09:49 74.8 °F 68 °F 30 in WSW 3.4 mph 10.7 mph 77 % 0 in
09:54 75 °F 68 °F 30 in WNW 4.3 mph 10.7 mph 76 % 0 in
09:59 75.7 °F 68 °F 29.9 in West 5.6 mph 11 mph 76 % 0 in
10:04 75.9 °F 68 °F 29.9 in West 7.8 mph 12.8 mph 75 % 0 in
10:10 76.1 °F 68 °F 29.9 in West 6.3 mph 12.8 mph 74 % 0 in
10:15 76.3 °F 68 °F 29.9 in West 10.1 mph 10.5 mph 74 % 0 in
10:20 76.6 °F 68 °F 29.9 in WSW 3.8 mph 10.5 mph 73 % 0 in
10:25 77 °F 68 °F 29.9 in West 5.8 mph 11 mph 73 % 0 in
10:30 77.2 °F 68 °F 29.9 in West 9.8 mph 11 mph 73 % 0 in
10:35 77.7 °F 68 °F 29.9 in WNW 5.4 mph 10.1 mph 72 % 0 in
10:40 77.9 °F 68 °F 29.9 in WSW 5.6 mph 10.1 mph 71 % 0 in
10:45 78.1 °F 68 °F 30 in West 6.5 mph 11.2 mph 70 % 0 in
10:50 78.4 °F 68 °F 30 in West 6.3 mph 12.3 mph 70 % 0 in
10:55 79 °F 68 °F 30 in WSW 5.6 mph 12.3 mph 69 % 0 in
11:00 79.3 °F 68 °F 29.9 in West 10.3 mph 10.3 mph 68 % 0 in
11:05 79.9 °F 69.8 °F 29.9 in West 6.3 mph 10.3 mph 68 % 0 in
11:10 80.2 °F 68 °F 29.9 in SW 9.8 mph 10.3 mph 67 % 0 in
11:15 80.4 °F 68 °F 30 in West 8.1 mph 11 mph 66 % 0 in
11:20 80.6 °F 68 °F 30 in West 8.1 mph 11 mph 66 % 0 in
11:25 81.1 °F 68 °F 30 in West 3.1 mph 10.1 mph 64 % 0 in
11:30 81.5 °F 69.8 °F 30 in West 4.9 mph 10.1 mph 64 % 0 in
11:35 81.9 °F 68 °F 30 in WNW 2.9 mph 9.8 mph 62 % 0 in
11:40 81.5 °F 68 °F 30 in West 8.5 mph 11.2 mph 60 % 0 in
11:45 82 °F 68 °F 30 in WSW 5.8 mph 11.2 mph 61 % 0 in
11:50 82.6 °F 66.2 °F 30 in SSW 6.3 mph 12.8 mph 58 % 0 in
11:55 82.4 °F 66.2 °F 30 in West 6.7 mph 12.8 mph 58 % 0 in
12:00 82.9 °F 68 °F 30 in NNE 4 mph 13 mph 58 % 0 in
12:05 83.7 °F 68 °F 30 in West 8.7 mph 13 mph 57 % 0 in
12:11 84.2 °F 66.2 °F 30 in West 3.6 mph 14.1 mph 52 % 0 in
12:15 83.5 °F 66.2 °F 30 in West 8.5 mph 14.1 mph 54 % 0 in
12:21 83.8 °F 64.4 °F 30 in West 7.6 mph 12.5 mph 51 % 0 in
12:26 83.5 °F 64.4 °F 30 in West 3.6 mph 13.4 mph 51 % 0 in
12:31 83.5 °F 66.2 °F 30 in West 7.6 mph 13.4 mph 53 % 0 in
12:36 84 °F 64.4 °F 30 in West 6.5 mph 13 mph 50 % 0 in
12:41 84.7 °F 62.6 °F 30 in WNW 8.1 mph 13.2 mph 48 % 0 in
12:46 84.9 °F 62.6 °F 30 in SW 3.6 mph 13.2 mph 47 % 0 in
12:51 83.8 °F 62.6 °F 30 in West 4.9 mph 10.7 mph 49 % 0 in
12:56 84.6 °F 62.6 °F 30 in West 7.4 mph 9.8 mph 48 % 0 in
13:01 85.3 °F 64.4 °F 30 in North 7.6 mph 8.1 mph 49 % 0 in
13:06 85.5 °F 64.4 °F 30 in WSW 6.3 mph 7.6 mph 50 % 0 in
13:11 86.4 °F 66.2 °F 30 in WNW 6.5 mph 8.5 mph 49 % 0 in
13:16 86.5 °F 64.4 °F 30 in West 6.5 mph 8.7 mph 46 % 0 in
13:21 87.1 °F 64.4 °F 30 in WSW 6 mph 8.7 mph 45 % 0 in
13:26 85.3 °F 62.6 °F 30 in West 5.8 mph 10.5 mph 46 % 0 in
13:31 85.1 °F 62.6 °F 30 in West 4.3 mph 11.9 mph 45 % 0 in
13:36 85.3 °F 60.8 °F 30 in West 10.1 mph 11.9 mph 44 % 0 in
13:41 85.8 °F 62.6 °F 30 in WNW 2.9 mph 13.2 mph 45 % 0 in
13:46 86.9 °F 64.4 °F 30 in West 8.5 mph 13.2 mph 47 % 0 in
13:51 86.9 °F 66.2 °F 30 in WNW 7.8 mph 8.7 mph 48 % 0 in
13:56 85.5 °F 62.6 °F 30 in NW 6.3 mph 9.2 mph 47 % 0 in
14:01 85.8 °F 64.4 °F 30 in SSE 9.4 mph 9.4 mph 49 % 0 in
14:06 86.9 °F 66.2 °F 30 in WNW 5.4 mph 9.4 mph 50 % 0 in
14:11 87.8 °F 66.2 °F 30 in NNW 6 mph 8.7 mph 49 % 0 in
14:16 87.1 °F 66.2 °F 30 in North 3.1 mph 8.1 mph 49 % 0 in
14:21 87.3 °F 66.2 °F 30 in WNW 2.2 mph 8.7 mph 48 % 0 in
14:27 87.6 °F 66.2 °F 30 in West 3.1 mph 8.7 mph 49 % 0 in
14:32 87.8 °F 64.4 °F 30 in WNW 4.9 mph 7.4 mph 46 % 0 in
14:37 87.1 °F 66.2 °F 30 in Calm   8.1 mph 48 % 0 in
14:42 87.3 °F 64.4 °F 30 in NNW 2.5 mph 8.1 mph 47 % 0 in
14:47 87.8 °F 64.4 °F 30 in North 7.6 mph 8.1 mph 45 % 0 in
14:52 87.1 °F 64.4 °F 30 in WNW 5.6 mph 8.5 mph 45 % 0 in
14:57 87.1 °F 62.6 °F 30 in West 8.1 mph 11.9 mph 44 % 0 in
15:02 86.9 °F 60.8 °F 30 in WSW 7.8 mph 13 mph 42 % 0 in
15:07 87.3 °F 62.6 °F 30 in West 6 mph 13 mph 44 % 0 in
15:12 88 °F 62.6 °F 30 in South 8.1 mph 10.7 mph 43 % 0 in
15:17 87.8 °F 60.8 °F 30 in WSW 5.8 mph 11.9 mph 41 % 0 in
15:22 87.6 °F 62.6 °F 30 in WSW 3.4 mph 11.9 mph 42 % 0 in
15:27 87.4 °F 60.8 °F 30 in North 6.5 mph 8.1 mph 42 % 0 in
15:32 87.3 °F 60.8 °F 30 in WNW 4.3 mph 8.1 mph 41 % 0 in
15:37 87.4 °F 60.8 °F 30 in West 7.6 mph 10.1 mph 40 % 0 in
15:42 88.2 °F 62.6 °F 30 in Calm   10.1 mph 41 % 0 in
15:47 88.9 °F 62.6 °F 30 in WNW 6.3 mph 10.5 mph 40 % 0 in
15:52 88 °F 60.8 °F 30 in West 4.7 mph 10.5 mph 40 % 0 in
15:57 88.2 °F 59 °F 30 in West 4 mph 8.7 mph 38 % 0 in
16:02 88.3 °F 59 °F 30 in West 8.1 mph 8.1 mph 38 % 0 in
16:07 88.2 °F 59 °F 30 in West 4.7 mph 10.1 mph 36 % 0 in
16:12 88.3 °F 57.2 °F 30 in WSW 8.5 mph 10.1 mph 34 % 0 in
16:17 88.2 °F 55.4 °F 30 in West 4.9 mph 10.7 mph 33 % 0 in
16:22 88.3 °F 55.4 °F 30 in West 5.6 mph 10.7 mph 33 % 0 in
16:27 88.2 °F 55.4 °F 30 in West 9.2 mph 10.5 mph 32 % 0 in
16:32 88.5 °F 55.4 °F 30 in West 10.1 mph 10.7 mph 33 % 0 in
16:37 88.2 °F 55.4 °F 30 in West 5.4 mph 12.5 mph 32 % 0 in
16:42 88.2 °F 55.4 °F 30 in West 4.3 mph 15.4 mph 31 % 0 in
16:44 88.3 °F 55.4 °F 30 in WSW 3.8 mph 15.4 mph 32 % 0 in
16:49 88.9 °F 55.4 °F 30 in WSW 7.6 mph 12.3 mph 32 % 0 in
16:54 88.7 °F 55.4 °F 30 in West 7.4 mph 12.5 mph 31 % 0 in
16:59 88.3 °F 53.6 °F 30 in NW 5.4 mph 12.5 mph 30 % 0 in
17:04 88.5 °F 53.6 °F 30 in SW 2.9 mph 10.7 mph 30 % 0 in
17:09 88.3 °F 55.4 °F 30 in West 8.7 mph 10.3 mph 31 % 0 in
17:14 88.2 °F 55.4 °F 30 in WNW 7.8 mph 12.1 mph 31 % 0 in
17:19 88.5 °F 55.4 °F 30 in WNW 8.7 mph 12.1 mph 31 % 0 in
17:24 88 °F 53.6 °F 30 in SSW 3.8 mph 10.5 mph 31 % 0 in
17:29 87.8 °F 55.4 °F 30 in West 8.5 mph 13.2 mph 32 % 0 in
17:34 87.6 °F 55.4 °F 30 in WSW 9.6 mph 13.2 mph 33 % 0 in
17:39 86.7 °F 55.4 °F 30 in WSW 8.5 mph 15.2 mph 33 % 0 in
17:44 86.4 °F 55.4 °F 30 in West 8.1 mph 15.2 mph 33 % 0 in
17:49 86.4 °F 55.4 °F 30 in WSW 10.7 mph 11 mph 35 % 0 in
17:54 86 °F 55.4 °F 30 in West 13.9 mph 13.9 mph 35 % 0 in
17:59 86.2 °F 55.4 °F 30 in WSW 10.7 mph 13.9 mph 35 % 0 in
18:04 86.2 °F 55.4 °F 30 in West 6.5 mph 13.6 mph 35 % 0 in
18:09 86.2 °F 55.4 °F 30 in West 6 mph 13.6 mph 34 % 0 in
18:14 85.5 °F 55.4 °F 30 in West 7.4 mph 11 mph 35 % 0 in
18:20 84.9 °F 53.6 °F 30 in West 10.7 mph 11 mph 34 % 0 in
18:24 84.4 °F 53.6 °F 30 in West 10.7 mph 12.5 mph 33 % 0 in
18:30 83.8 °F 51.8 °F 30 in SSW 9.6 mph 12.8 mph 33 % 0 in
18:35 83.7 °F 51.8 °F 30 in West 6.5 mph 13.2 mph 32 % 0 in
18:40 84.2 °F 51.8 °F 30 in West 9.2 mph 13.2 mph 32 % 0 in
18:45 83.8 °F 51.8 °F 30 in West 7.4 mph 12.1 mph 33 % 0 in
18:50 82.6 °F 50 °F 30 in West 7.8 mph 12.1 mph 32 % 0 in
18:55 81.9 °F 50 °F 30 in West 8.1 mph 12.1 mph 33 % 0 in
19:00 81.7 °F 51.8 °F 30 in West 6.3 mph 12.1 mph 34 % 0 in
19:05 82 °F 51.8 °F 30 in West 8.1 mph 10.1 mph 35 % 0 in
19:06 82 °F 51.8 °F 30 in West 8.7 mph 9.8 mph 35 % 0 in
19:11 82.2 °F 51.8 °F 30 in West 9.8 mph 9.8 mph 34 % 0 in
19:16 82.6 °F 51.8 °F 30 in West 4.9 mph 9.8 mph 34 % 0 in
19:21 83.1 °F 53.6 °F 30 in West 6 mph 9.8 mph 35 % 0 in
19:26 83.3 °F 53.6 °F 30 in WSW 7.6 mph 10.3 mph 35 % 0 in
19:31 83.1 °F 53.6 °F 30 in West 7.6 mph 10.3 mph 35 % 0 in
19:36 82.8 °F 53.6 °F 30 in West 8.5 mph 10.5 mph 35 % 0 in
19:41 82 °F 51.8 °F 30 in West 7.8 mph 10.5 mph 35 % 0 in
19:46 82.4 °F 51.8 °F 30 in WSW 9.6 mph 10.5 mph 35 % 0 in
19:52 81.9 °F 51.8 °F 30 in WSW 8.1 mph 9.8 mph 35 % 0 in
19:57 81.7 °F 51.8 °F 30 in WSW 7.6 mph 9.8 mph 35 % 0 in
20:02 81.3 °F 51.8 °F 30 in West 8.1 mph 10.5 mph 35 % 0 in
20:07 80.8 °F 50 °F 30 in West 7.4 mph 12.3 mph 34 % 0 in
20:12 80.6 °F 50 °F 30 in West 6.5 mph 12.3 mph 35 % 0 in
20:17 79.9 °F 50 °F 30 in West 10.1 mph 12.5 mph 35 % 0 in
20:22 79.2 °F 50 °F 30 in West 5.8 mph 12.5 mph 35 % 0 in
20:27 78.3 °F 48.2 °F 30 in West 4.7 mph 10.7 mph 35 % 0 in
20:32 77.2 °F 48.2 °F 30 in West 10.7 mph 10.7 mph 35 % 0 in
20:37 76.3 °F 48.2 °F 30 in West 7.2 mph 10.7 mph 36 % 0 in
20:42 75.6 °F 48.2 °F 30 in West 6 mph 10.3 mph 37 % 0 in
20:47 74.8 °F 48.2 °F 30 in West 6 mph 8.7 mph 39 % 0 in
20:52 74.5 °F 48.2 °F 30 in West 3.8 mph 8.7 mph 40 % 0 in
21:02 73.9 °F 48.2 °F 30 in West 5.4 mph 7.4 mph 41 % 0 in
21:07 73.8 °F 50 °F 30 in West 0.9 mph 6.3 mph 42 % 0 in
21:12 73.4 °F 48.2 °F 30 in WNW 2.9 mph 6.3 mph 42 % 0 in
21:17 73 °F 48.2 °F 30 in West 4 mph 6.3 mph 43 % 0 in
21:22 72.9 °F 48.2 °F 30 in WNW 2.2 mph 6.3 mph 43 % 0 in
21:27 72.5 °F 50 °F 30 in WNW 1.1 mph 5.4 mph 44 % 0 in
21:32 72.1 °F 50 °F 30 in Calm   4 mph 44 % 0 in
21:37 71.6 °F 50 °F 30 in Calm   5.8 mph 45 % 0 in
21:42 71.2 °F 50 °F 30 in Calm   5.8 mph 46 % 0 in
21:47 70.7 °F 50 °F 30 in NW 3.1 mph 3.1 mph 46 % 0 in
21:52 70.3 °F 50 °F 30 in Calm   3.4 mph 47 % 0 in
21:58 69.8 °F 50 °F 30 in West 1.3 mph 2.7 mph 48 % 0 in
22:03 69.3 °F 50 °F 30 in WNW 0.9 mph 2.5 mph 49 % 0 in
22:08 69.1 °F 50 °F 30 in Calm   3.6 mph 49 % 0 in
22:13 68.5 °F 50 °F 30 in West 1.3 mph 4 mph 50 % 0 in
22:18 68.7 °F 50 °F 30 in WSW 2.5 mph 4 mph 50 % 0 in
22:23 68.5 °F 50 °F 30 in Calm   4 mph 50 % 0 in
22:28 68.4 °F 50 °F 30 in Calm   4 mph 50 % 0 in
22:33 67.6 °F 50 °F 30 in Calm   3.1 mph 52 % 0 in
22:38 67.1 °F 50 °F 30 in Calm   2.2 mph 53 % 0 in
22:39 66.9 °F 50 °F 30 in Calm   2.5 mph 53 % 0 in
22:44 66.4 °F 50 °F 30 in WNW 2 mph 2.9 mph 54 % 0 in
22:49 66 °F 50 °F 30 in Calm   2.9 mph 55 % 0 in
22:55 65.8 °F 48.2 °F 30 in Calm   2.9 mph 55 % 0 in
23:00 65.5 °F 48.2 °F 30 in Calm   2.5 mph 55 % 0 in
23:05 65.1 °F 48.2 °F 30 in Calm   2.5 mph 56 % 0 in
23:10 64.8 °F 50 °F 30 in Calm     57 % 0 in
23:15 64.4 °F 48.2 °F 30 in Calm     57 % 0 in
23:20 64.2 °F 50 °F 30 in Calm     59 % 0 in
23:25 63.7 °F 50 °F 30 in Calm     59 % 0 in
23:30 63.3 °F 50 °F 30 in Calm     60 % 0 in
23:35 63.1 °F 50 °F 30 in Calm     62 % 0 in
23:40 63 °F 50 °F 30 in Calm   3.4 mph 62 % 0 in
23:45 62.8 °F 50 °F 30 in Calm   3.4 mph 63 % 0 in
23:50 62.6 °F 50 °F 30 in Calm     64 % 0 in
23:55 62.4 °F 51.8 °F 30 in Calm     65 % 0 in
Le Gheer Warneton
Courtoisie de Weather Underground - 1.75 mb

Mise a jour : 16-12-17 15:49:11
Généré par Cumulus 1.9.4 (1099)